createdAt,value
2022-10-07T00:00:19.154Z,99.90
2022-10-07T00:02:51.883Z,99.90
2022-10-07T00:05:22.093Z,99.90
2022-10-07T00:07:52.312Z,99.90
2022-10-07T00:10:22.482Z,99.90
2022-10-07T00:12:52.646Z,99.90
2022-10-07T00:15:23.841Z,99.90
2022-10-07T00:17:56.695Z,99.90
2022-10-07T00:20:27.009Z,99.90
2022-10-07T00:22:57.180Z,99.90
2022-10-07T00:25:27.544Z,99.90
2022-10-07T00:27:57.798Z,99.90
2022-10-07T00:30:28.256Z,99.90
2022-10-07T00:33:01.469Z,99.90
2022-10-07T00:35:31.645Z,99.90
2022-10-07T00:38:01.827Z,99.90
2022-10-07T00:40:32.285Z,99.90
2022-10-07T00:43:02.486Z,99.90
2022-10-07T00:45:32.720Z,99.90
2022-10-07T00:48:05.475Z,99.90
2022-10-07T00:50:36.001Z,99.90
2022-10-07T00:53:06.975Z,99.90
2022-10-07T00:55:37.419Z,99.90
2022-10-07T00:58:09.859Z,99.90
2022-10-07T01:00:40.756Z,99.90
2022-10-07T01:03:13.650Z,99.90
2022-10-07T01:05:43.924Z,99.90
2022-10-07T01:08:15.826Z,99.90
2022-10-07T01:10:55.767Z,99.90
2022-10-07T01:13:34.743Z,99.90
2022-10-07T01:16:16.082Z,99.90
2022-10-07T01:18:55.549Z,99.90
2022-10-07T01:21:39.751Z,99.90
2022-10-07T01:24:24.281Z,99.90
2022-10-07T01:27:04.968Z,99.90
2022-10-07T01:29:41.305Z,99.90
2022-10-07T01:32:19.683Z,99.90
2022-10-07T01:34:51.723Z,99.90
2022-10-07T01:37:24.197Z,99.90
2022-10-07T01:39:59.016Z,99.90
2022-10-07T01:42:32.361Z,99.90
2022-10-07T01:45:03.704Z,99.90
2022-10-07T01:47:33.897Z,99.90
2022-10-07T01:50:04.073Z,99.90
2022-10-07T01:53:03.240Z,99.90
2022-10-07T01:56:10.664Z,99.90
2022-10-07T01:59:20.851Z,99.90
2022-10-07T02:01:57.655Z,99.90
2022-10-07T02:04:46.325Z,99.90
2022-10-07T02:07:36.330Z,99.90
2022-10-07T02:10:17.507Z,99.90
2022-10-07T02:12:54.652Z,99.90
2022-10-07T02:15:31.985Z,99.90
2022-10-07T02:18:06.613Z,99.90
2022-10-07T02:20:41.766Z,99.90
2022-10-07T02:23:14.983Z,99.90
2022-10-07T02:25:51.117Z,99.90
2022-10-07T02:28:26.857Z,99.90
2022-10-07T02:31:05.129Z,99.90
2022-10-07T02:33:37.127Z,99.90
2022-10-07T02:36:12.145Z,99.90
2022-10-07T02:38:42.794Z,99.90
2022-10-07T02:41:33.601Z,99.90
2022-10-07T02:44:14.704Z,99.90
2022-10-07T02:46:56.016Z,99.90
2022-10-07T02:49:29.369Z,99.90
2022-10-07T02:52:05.530Z,99.90
2022-10-07T02:54:42.889Z,99.90
2022-10-07T02:57:16.689Z,99.90
2022-10-07T02:59:49.024Z,99.90
2022-10-07T03:02:29.373Z,99.90
2022-10-07T03:05:00.569Z,99.90
2022-10-07T03:07:31.235Z,99.90
2022-10-07T03:10:01.952Z,99.90
2022-10-07T03:12:32.113Z,99.90
2022-10-07T03:15:02.271Z,99.90
2022-10-07T03:17:35.131Z,99.90
2022-10-07T03:20:05.318Z,99.90
2022-10-07T03:22:35.565Z,99.90
2022-10-07T03:25:06.153Z,99.90
2022-10-07T03:27:36.313Z,99.90
2022-10-07T03:30:07.531Z,99.90
2022-10-07T03:32:41.968Z,99.90
2022-10-07T03:35:12.489Z,99.90
2022-10-07T03:37:42.999Z,99.90
2022-10-07T03:40:14.051Z,99.90
2022-10-07T03:42:44.215Z,99.90
2022-10-07T03:45:14.486Z,99.90
2022-10-07T03:47:47.427Z,99.90
2022-10-07T03:50:18.098Z,99.90
2022-10-07T03:52:48.259Z,99.90
2022-10-07T03:55:19.112Z,99.90
2022-10-07T03:57:59.739Z,99.90
2022-10-07T04:00:30.732Z,99.90
2022-10-07T04:03:03.525Z,99.90
2022-10-07T04:05:34.092Z,99.90
2022-10-07T04:08:04.999Z,99.90
2022-10-07T04:10:37.279Z,99.90
2022-10-07T04:13:07.295Z,99.90
2022-10-07T04:15:38.992Z,99.90
2022-10-07T04:18:13.758Z,99.90
2022-10-07T04:20:44.249Z,99.90
2022-10-07T04:23:14.589Z,99.90
2022-10-07T04:25:47.838Z,99.90
2022-10-07T04:28:21.664Z,99.90
2022-10-07T04:30:54.005Z,99.90
2022-10-07T04:33:29.394Z,99.90
2022-10-07T04:35:59.743Z,99.90
2022-10-07T04:38:32.713Z,99.90
2022-10-07T04:41:07.585Z,99.90
2022-10-07T04:43:35.166Z,99.90
2022-10-07T04:46:08.863Z,99.90
2022-10-07T04:48:42.144Z,99.90
2022-10-07T04:51:13.139Z,99.90
2022-10-07T04:53:43.536Z,99.90
2022-10-07T04:56:13.664Z,99.90
2022-10-07T04:58:43.812Z,99.90
2022-10-07T05:01:14.954Z,99.90
2022-10-07T05:03:47.888Z,99.90
2022-10-07T05:06:18.631Z,99.90
2022-10-07T05:08:50.068Z,99.90
2022-10-07T05:11:20.298Z,99.90
2022-10-07T05:13:50.601Z,99.90
2022-10-07T05:16:20.921Z,99.90
2022-10-07T05:18:53.803Z,99.90
2022-10-07T05:21:23.992Z,99.90
2022-10-07T05:23:54.406Z,99.90
2022-10-07T05:26:24.688Z,99.90
2022-10-07T05:28:55.027Z,99.90
2022-10-07T05:31:26.081Z,99.90
2022-10-07T05:33:59.368Z,99.90
2022-10-07T05:36:29.803Z,99.90
2022-10-07T05:39:00.460Z,99.90
2022-10-07T05:41:30.869Z,99.90
2022-10-07T05:44:01.340Z,99.90
2022-10-07T05:46:31.809Z,99.90
2022-10-07T05:49:04.740Z,99.90
2022-10-07T05:51:34.969Z,99.90
2022-10-07T05:54:05.441Z,99.90
2022-10-07T05:56:36.974Z,99.90
2022-10-07T05:59:07.587Z,99.90
2022-10-07T06:01:37.889Z,99.90
2022-10-07T06:04:10.793Z,99.90
2022-10-07T06:06:41.517Z,99.90
2022-10-07T06:09:24.093Z,99.90
2022-10-07T06:12:06.760Z,99.90
2022-10-07T06:14:36.990Z,99.90
2022-10-07T06:17:07.234Z,99.90
2022-10-07T06:19:40.000Z,99.90
2022-10-07T06:22:11.333Z,99.90
2022-10-07T06:24:41.441Z,99.90
2022-10-07T06:27:11.578Z,99.90
2022-10-07T06:29:42.531Z,99.90
2022-10-07T06:32:12.849Z,99.90
2022-10-07T06:34:45.666Z,99.90
2022-10-07T06:37:16.148Z,99.90
2022-10-07T06:39:46.343Z,99.90
2022-10-07T06:42:16.734Z,99.90
2022-10-07T06:44:46.870Z,99.90
2022-10-07T06:47:17.120Z,99.90
2022-10-07T06:49:49.887Z,99.90
2022-10-07T06:52:19.981Z,99.90
2022-10-07T06:54:50.108Z,99.90
2022-10-07T06:57:44.247Z,99.90
2022-10-07T07:00:12.624Z,99.90
2022-10-07T07:02:43.024Z,99.90
2022-10-07T07:05:17.815Z,99.90
2022-10-07T07:07:48.457Z,99.90
2022-10-07T07:10:19.059Z,99.90
2022-10-07T07:12:49.769Z,99.90
2022-10-07T07:15:20.408Z,99.90
2022-10-07T07:17:50.885Z,99.90
2022-10-07T07:20:23.696Z,99.90
2022-10-07T07:22:53.863Z,99.90
2022-10-07T07:25:23.985Z,99.90
2022-10-07T07:27:57.883Z,99.90
2022-10-07T07:30:28.533Z,99.90
2022-10-07T07:32:58.665Z,99.90
2022-10-07T07:35:33.983Z,99.90
2022-10-07T07:38:04.829Z,99.90
2022-10-07T07:40:35.140Z,99.90
2022-10-07T07:43:05.305Z,99.90
2022-10-07T07:45:36.892Z,99.90
2022-10-07T07:48:07.474Z,99.90
2022-10-07T07:50:43.370Z,99.90
2022-10-07T07:53:13.451Z,99.90
2022-10-07T07:55:43.756Z,99.90
2022-10-07T07:58:13.977Z,99.90
2022-10-07T08:00:44.166Z,99.90
2022-10-07T08:03:14.475Z,99.90
2022-10-07T08:05:47.967Z,99.90
2022-10-07T08:08:18.187Z,99.90
2022-10-07T08:10:51.811Z,99.90
2022-10-07T08:13:22.222Z,99.90
2022-10-07T08:15:52.374Z,99.90
2022-10-07T08:18:22.584Z,99.90
2022-10-07T08:21:03.120Z,99.90
2022-10-07T08:23:34.181Z,99.90
2022-10-07T08:26:06.053Z,99.90
2022-10-07T08:28:39.350Z,99.90
2022-10-07T08:31:14.479Z,99.90
2022-10-07T08:33:47.761Z,99.90
2022-10-07T08:36:23.290Z,99.90
2022-10-07T08:38:54.045Z,99.90
2022-10-07T08:41:48.789Z,99.90
2022-10-07T08:44:26.300Z,99.90
2022-10-07T08:47:06.429Z,99.90
2022-10-07T08:49:46.941Z,99.90
2022-10-07T08:52:33.254Z,99.90
2022-10-07T08:55:04.392Z,99.90
2022-10-07T08:58:04.488Z,99.90
2022-10-07T09:00:43.914Z,99.90
2022-10-07T09:03:27.909Z,99.90
2022-10-07T09:05:59.675Z,99.90
2022-10-07T09:08:40.443Z,99.90
2022-10-07T09:11:20.304Z,99.90
2022-10-07T09:13:57.109Z,99.90
2022-10-07T09:16:32.475Z,99.90
2022-10-07T09:19:05.051Z,99.90
2022-10-07T09:21:42.724Z,99.90
2022-10-07T09:24:24.680Z,99.90
2022-10-07T09:26:58.123Z,99.90
2022-10-07T09:29:32.482Z,99.90
2022-10-07T09:32:02.747Z,99.90
2022-10-07T09:34:34.538Z,99.90
2022-10-07T09:37:22.089Z,99.90
2022-10-07T09:39:57.855Z,99.90
2022-10-07T09:42:39.356Z,99.90
2022-10-07T09:45:24.654Z,99.90
2022-10-07T09:47:57.213Z,99.90
2022-10-07T09:50:37.219Z,99.90
2022-10-07T09:53:09.208Z,99.90
2022-10-07T09:55:46.157Z,99.90
2022-10-07T09:58:27.906Z,99.90
2022-10-07T10:01:01.058Z,99.90
2022-10-07T10:03:33.931Z,99.90
2022-10-07T10:06:06.760Z,99.90
2022-10-07T10:08:40.050Z,99.90
2022-10-07T10:11:28.777Z,99.90
2022-10-07T10:13:59.716Z,99.90
2022-10-07T10:16:40.610Z,99.90
2022-10-07T10:19:27.142Z,99.90
2022-10-07T10:21:59.247Z,99.90
2022-10-07T10:24:48.804Z,99.90
2022-10-07T10:27:30.225Z,99.90
2022-10-07T10:30:09.089Z,99.90
2022-10-07T10:33:15.067Z,99.90
2022-10-07T10:35:57.547Z,99.90
2022-10-07T10:38:46.644Z,99.90
2022-10-07T10:41:31.728Z,99.90
2022-10-07T10:44:39.485Z,99.90
2022-10-07T10:47:20.619Z,99.90
2022-10-07T10:50:04.430Z,99.90
2022-10-07T10:52:49.684Z,99.90
2022-10-07T10:55:42.307Z,99.90
2022-10-07T10:58:28.567Z,99.90
2022-10-07T11:01:11.483Z,99.90
2022-10-07T11:04:19.551Z,99.90
2022-10-07T11:06:56.393Z,99.90
2022-10-07T11:09:41.610Z,99.90
2022-10-07T11:12:25.363Z,99.90
2022-10-07T11:15:02.160Z,99.90
2022-10-07T11:17:40.053Z,99.90
2022-10-07T11:20:22.013Z,99.90
2022-10-07T11:22:58.007Z,99.90
2022-10-07T11:25:36.483Z,99.90
2022-10-07T11:28:27.363Z,99.90
2022-10-07T11:31:04.960Z,99.90
2022-10-07T11:33:47.271Z,99.90
2022-10-07T11:36:22.866Z,99.90
2022-10-07T11:38:55.864Z,99.90
2022-10-07T11:41:32.960Z,99.90
2022-10-07T11:44:10.174Z,99.90
2022-10-07T11:46:45.057Z,99.90
2022-10-07T11:49:23.750Z,99.90
2022-10-07T11:52:00.763Z,99.90
2022-10-07T11:54:36.209Z,99.90
2022-10-07T11:57:07.414Z,99.80
2022-10-07T11:59:48.220Z,99.90
2022-10-07T12:02:48.959Z,99.70
2022-10-07T12:05:58.746Z,99.10
2022-10-07T12:08:36.850Z,99.40
2022-10-07T12:11:49.475Z,99.00
2022-10-07T12:14:37.647Z,99.30
2022-10-07T12:17:28.404Z,99.30
2022-10-07T12:20:39.341Z,98.80
2022-10-07T12:23:54.186Z,98.20
2022-10-07T12:26:52.222Z,98.20
2022-10-07T12:29:48.387Z,97.80
2022-10-07T12:33:01.306Z,97.80
2022-10-07T12:35:54.598Z,96.20
2022-10-07T12:38:31.547Z,96.60
2022-10-07T12:41:23.280Z,96.60
2022-10-07T12:44:04.739Z,95.90
2022-10-07T12:46:41.868Z,95.40
2022-10-07T12:49:22.205Z,95.90
2022-10-07T12:51:55.749Z,95.30
2022-10-07T12:54:32.360Z,95.30
2022-10-07T12:57:14.243Z,95.40
2022-10-07T13:00:02.083Z,95.50
2022-10-07T13:03:11.634Z,95.20
2022-10-07T13:06:34.393Z,94.90
2022-10-07T13:09:33.594Z,94.40
2022-10-07T13:12:23.551Z,94.40
2022-10-07T13:15:18.924Z,94.10
2022-10-07T13:17:56.613Z,93.90
2022-10-07T13:20:46.422Z,94.20
2022-10-07T13:23:24.734Z,94.50
2022-10-07T13:26:00.522Z,94.40
2022-10-07T13:28:41.834Z,94.40
2022-10-07T13:31:22.756Z,94.80
2022-10-07T13:33:54.234Z,92.60
2022-10-07T13:36:27.807Z,92.70
2022-10-07T13:39:14.771Z,93.20
2022-10-07T13:41:48.427Z,92.80
2022-10-07T13:44:24.318Z,93.00
2022-10-07T13:47:00.323Z,93.30
2022-10-07T13:49:35.819Z,93.30
2022-10-07T13:52:10.381Z,92.20
2022-10-07T13:54:40.578Z,91.70
2022-10-07T13:57:14.196Z,92.20
2022-10-07T13:59:48.897Z,92.00
2022-10-07T14:02:20.780Z,91.90
2022-10-07T14:05:04.332Z,92.00
2022-10-07T14:07:34.737Z,91.60
2022-10-07T14:10:10.122Z,92.00
2022-10-07T14:12:44.206Z,91.50
2022-10-07T14:15:21.912Z,91.00
2022-10-07T14:17:54.843Z,91.30
2022-10-07T14:20:30.922Z,91.90
2022-10-07T14:23:03.819Z,91.70
2022-10-07T14:25:40.142Z,91.60
2022-10-07T14:28:21.568Z,91.50
2022-10-07T14:31:32.729Z,91.10
2022-10-07T14:34:27.174Z,90.70
2022-10-07T14:37:05.477Z,91.40
2022-10-07T14:39:39.027Z,91.50
2022-10-07T14:42:14.506Z,91.60
2022-10-07T14:44:45.648Z,92.30
2022-10-07T14:47:21.913Z,91.00
2022-10-07T14:49:52.975Z,90.80
2022-10-07T14:52:28.617Z,90.90
2022-10-07T14:55:00.716Z,91.20
2022-10-07T14:57:31.280Z,91.60
2022-10-07T15:00:01.514Z,91.00
2022-10-07T15:02:34.442Z,91.20
2022-10-07T15:05:04.955Z,91.70
2022-10-07T15:07:35.270Z,92.00
2022-10-07T15:10:05.688Z,92.00
2022-10-07T15:12:36.094Z,91.90
2022-10-07T15:15:07.357Z,92.10
2022-10-07T15:17:40.384Z,91.80
2022-10-07T15:20:14.050Z,92.00
2022-10-07T15:22:45.475Z,92.10
2022-10-07T15:25:18.223Z,92.40
2022-10-07T15:27:48.578Z,92.10
2022-10-07T15:30:19.085Z,92.50
2022-10-07T15:32:53.568Z,93.40
2022-10-07T15:35:24.023Z,93.10
2022-10-07T15:37:54.610Z,93.20
2022-10-07T15:40:24.977Z,93.40
2022-10-07T15:42:55.292Z,93.60
2022-10-07T15:45:25.698Z,93.60
2022-10-07T15:48:00.647Z,93.80
2022-10-07T15:50:32.333Z,94.00
2022-10-07T15:53:02.858Z,94.00
2022-10-07T15:55:33.767Z,94.40
2022-10-07T15:58:04.445Z,94.50
2022-10-07T16:00:34.628Z,94.40
2022-10-07T16:03:07.510Z,94.50
2022-10-07T16:05:38.098Z,94.90
2022-10-07T16:08:09.991Z,95.30
2022-10-07T16:10:40.573Z,95.20
2022-10-07T16:13:10.717Z,96.50
2022-10-07T16:15:42.584Z,96.50
2022-10-07T16:18:15.491Z,96.00
2022-10-07T16:20:46.245Z,95.90
2022-10-07T16:23:16.445Z,95.70
2022-10-07T16:25:47.037Z,95.70
2022-10-07T16:28:29.791Z,96.20
2022-10-07T16:31:00.143Z,97.80
2022-10-07T16:33:32.920Z,99.10
2022-10-07T16:36:03.174Z,99.10
2022-10-07T16:38:35.154Z,99.50
2022-10-07T16:41:05.337Z,99.70
2022-10-07T16:43:36.278Z,99.90
2022-10-07T16:46:07.920Z,99.90
2022-10-07T16:48:45.933Z,99.90
2022-10-07T16:51:19.682Z,99.90
2022-10-07T16:53:51.806Z,99.90
2022-10-07T16:56:22.943Z,99.90
2022-10-07T16:58:58.593Z,99.90
2022-10-07T17:01:30.399Z,99.90
2022-10-07T17:04:06.472Z,99.90
2022-10-07T17:06:37.880Z,99.90
2022-10-07T17:09:08.481Z,99.90
2022-10-07T17:11:41.365Z,99.90
2022-10-07T17:14:15.706Z,99.90
2022-10-07T17:16:48.361Z,99.90
2022-10-07T17:19:23.211Z,99.90
2022-10-07T17:21:55.825Z,99.90
2022-10-07T17:24:27.230Z,99.90
2022-10-07T17:26:57.998Z,99.90
2022-10-07T17:29:30.895Z,99.90
2022-10-07T17:32:01.055Z,99.90
2022-10-07T17:34:34.441Z,99.90
2022-10-07T17:37:04.914Z,99.90
2022-10-07T17:39:35.041Z,99.90
2022-10-07T17:42:05.372Z,99.90
2022-10-07T17:44:35.809Z,99.90
2022-10-07T17:47:06.413Z,99.90
2022-10-07T17:49:39.700Z,99.90
2022-10-07T17:52:10.375Z,99.90
2022-10-07T17:54:40.697Z,99.90
2022-10-07T17:57:10.984Z,99.90
2022-10-07T17:59:41.309Z,99.90
2022-10-07T18:02:12.808Z,99.90
2022-10-07T18:04:46.494Z,99.90
2022-10-07T18:07:17.872Z,99.90
2022-10-07T18:09:48.186Z,99.90
2022-10-07T18:12:31.069Z,99.90
2022-10-07T18:15:13.728Z,99.90
2022-10-07T18:17:44.517Z,99.90
2022-10-07T18:20:17.839Z,99.90
2022-10-07T18:22:48.068Z,99.90
2022-10-07T18:25:18.720Z,99.90
2022-10-07T18:27:49.124Z,99.90
2022-10-07T18:30:20.069Z,99.90
2022-10-07T18:32:50.215Z,99.90
2022-10-07T18:35:23.022Z,99.90
2022-10-07T18:37:54.730Z,99.90
2022-10-07T18:40:25.037Z,99.90
2022-10-07T18:42:55.126Z,99.90
2022-10-07T18:45:25.502Z,99.90
2022-10-07T18:47:55.705Z,99.90
2022-10-07T18:50:33.351Z,99.90
2022-10-07T18:53:03.717Z,99.90
2022-10-07T18:55:33.901Z,99.90
2022-10-07T18:58:04.068Z,99.90
2022-10-07T19:00:34.279Z,99.90
2022-10-07T19:03:04.463Z,99.90
2022-10-07T19:05:39.343Z,99.90
2022-10-07T19:08:10.151Z,99.90
2022-10-07T19:10:42.182Z,99.90
2022-10-07T19:13:27.002Z,99.90
2022-10-07T19:15:57.290Z,99.90
2022-10-07T19:18:28.042Z,99.90
2022-10-07T19:21:03.691Z,99.90
2022-10-07T19:23:33.902Z,99.90
2022-10-07T19:26:04.478Z,99.90
2022-10-07T19:28:34.647Z,99.90
2022-10-07T19:31:16.670Z,99.90
2022-10-07T19:33:47.382Z,99.90
2022-10-07T19:36:23.337Z,99.90
2022-10-07T19:38:55.101Z,99.90
2022-10-07T19:41:27.839Z,99.90
2022-10-07T19:43:59.057Z,99.90
2022-10-07T19:46:32.582Z,99.90
2022-10-07T19:49:05.233Z,99.90
2022-10-07T19:51:39.032Z,99.90
2022-10-07T19:54:10.912Z,99.90
2022-10-07T19:56:42.673Z,99.90
2022-10-07T19:59:15.600Z,99.90
2022-10-07T20:01:49.842Z,99.90
2022-10-07T20:04:23.328Z,99.90
2022-10-07T20:06:56.593Z,99.90
2022-10-07T20:09:26.876Z,99.90
2022-10-07T20:11:57.004Z,99.90
2022-10-07T20:14:27.156Z,99.90
2022-10-07T20:16:58.062Z,99.90
2022-10-07T20:19:28.232Z,99.90
2022-10-07T20:22:02.057Z,99.90
2022-10-07T20:24:32.217Z,99.90
2022-10-07T20:27:02.661Z,99.90
2022-10-07T20:29:32.954Z,99.90
2022-10-07T20:32:03.302Z,99.90
2022-10-07T20:34:33.471Z,99.90
2022-10-07T20:37:06.263Z,99.90
2022-10-07T20:39:48.855Z,99.90
2022-10-07T20:42:25.925Z,99.90
2022-10-07T20:44:57.717Z,99.90
2022-10-07T20:47:30.723Z,99.90
2022-10-07T20:50:02.764Z,99.90
2022-10-07T20:52:38.781Z,99.90
2022-10-07T20:55:11.714Z,99.90
2022-10-07T20:57:41.961Z,99.90
2022-10-07T21:00:16.586Z,99.90
2022-10-07T21:02:47.212Z,99.90
2022-10-07T21:05:17.815Z,99.90
2022-10-07T21:07:54.487Z,99.90
2022-10-07T21:10:25.025Z,99.90
2022-10-07T21:12:55.164Z,99.90
2022-10-07T21:15:25.814Z,99.90
2022-10-07T21:17:55.968Z,99.90
2022-10-07T21:20:26.159Z,99.90
2022-10-07T21:22:58.928Z,99.90
2022-10-07T21:25:29.499Z,99.90
2022-10-07T21:27:59.706Z,99.90
2022-10-07T21:30:31.000Z,99.90
2022-10-07T21:33:01.348Z,99.90
2022-10-07T21:35:31.634Z,99.90
2022-10-07T21:38:04.275Z,99.90
2022-10-07T21:40:34.429Z,99.90
2022-10-07T21:43:04.629Z,99.90
2022-10-07T21:45:34.859Z,99.90
2022-10-07T21:48:05.041Z,99.90
2022-10-07T21:50:35.373Z,99.90
2022-10-07T21:53:08.144Z,99.90
2022-10-07T21:55:39.766Z,99.90
2022-10-07T21:58:12.029Z,99.90
2022-10-07T22:00:43.150Z,99.90
2022-10-07T22:03:13.720Z,99.90
2022-10-07T22:05:44.174Z,99.90
2022-10-07T22:08:34.284Z,99.90
2022-10-07T22:11:05.284Z,99.90
2022-10-07T22:13:37.739Z,99.90
2022-10-07T22:16:14.648Z,99.90
2022-10-07T22:18:49.118Z,99.90
2022-10-07T22:21:22.393Z,99.90
2022-10-07T22:23:57.061Z,99.90
2022-10-07T22:26:28.363Z,99.90
2022-10-07T22:28:59.081Z,99.90
2022-10-07T22:31:30.379Z,99.90
2022-10-07T22:34:02.752Z,99.90
2022-10-07T22:36:30.679Z,99.90
2022-10-07T22:39:03.584Z,99.90
2022-10-07T22:41:34.028Z,99.90
2022-10-07T22:44:04.281Z,99.90
2022-10-07T22:46:34.438Z,99.90
2022-10-07T22:49:04.576Z,99.90
2022-10-07T22:51:34.760Z,99.90
2022-10-07T22:54:09.015Z,99.90
2022-10-07T22:56:39.182Z,99.90
2022-10-07T22:59:11.095Z,99.90
2022-10-07T23:01:41.362Z,99.90
2022-10-07T23:04:11.608Z,99.90
2022-10-07T23:06:41.680Z,99.90
2022-10-07T23:09:14.355Z,99.90
2022-10-07T23:11:44.821Z,99.90
2022-10-07T23:14:15.058Z,99.90
2022-10-07T23:16:45.297Z,99.90
2022-10-07T23:19:15.946Z,99.90
2022-10-07T23:21:46.344Z,99.90
2022-10-07T23:24:19.136Z,99.90
2022-10-07T23:26:49.439Z,99.90
2022-10-07T23:29:20.730Z,99.90
2022-10-07T23:31:51.233Z,99.90
2022-10-07T23:34:21.456Z,99.90
2022-10-07T23:36:55.404Z,99.90
2022-10-07T23:39:28.146Z,99.90
2022-10-07T23:41:58.316Z,99.90
2022-10-07T23:44:28.498Z,99.90
2022-10-07T23:46:58.678Z,99.90
2022-10-07T23:49:28.852Z,99.90
2022-10-07T23:51:59.056Z,99.90
2022-10-07T23:54:31.868Z,99.90
2022-10-07T23:57:01.927Z,99.90
2022-10-07T23:59:32.115Z,99.90
